sensor_id;sensor_type;location;lat;lon;timestamp;pressure;altitude;pressure_sealevel;temperature;humidity
65754;BME280;52488;47.502;18.940;2023-04-08T00:00:02;98208.69;;;2.71;98.66
65754;BME280;52488;47.502;18.940;2023-04-08T00:01:07;98198.16;;;2.67;98.46
65754;BME280;52488;47.502;18.940;2023-04-08T00:02:10;98200.47;;;2.63;98.53
65754;BME280;52488;47.502;18.940;2023-04-08T00:03:14;98204.03;;;2.58;98.73
65754;BME280;52488;47.502;18.940;2023-04-08T00:04:18;98206.75;;;2.58;99.05
65754;BME280;52488;47.502;18.940;2023-04-08T00:05:22;98201.31;;;2.58;99.26
65754;BME280;52488;47.502;18.940;2023-04-08T00:06:25;98212.16;;;2.58;99.47
65754;BME280;52488;47.502;18.940;2023-04-08T00:07:28;98205.47;;;2.59;99.58
65754;BME280;52488;47.502;18.940;2023-04-08T00:08:33;98209.16;;;2.61;99.62
65754;BME280;52488;47.502;18.940;2023-04-08T00:09:36;98200.16;;;2.67;99.52
65754;BME280;52488;47.502;18.940;2023-04-08T00:10:40;98202.34;;;2.68;99.32
65754;BME280;52488;47.502;18.940;2023-04-08T00:11:43;98202.87;;;2.67;99.35
65754;BME280;52488;47.502;18.940;2023-04-08T00:12:47;98196.19;;;2.68;99.44
65754;BME280;52488;47.502;18.940;2023-04-08T00:13:49;98199.63;;;2.68;99.48
65754;BME280;52488;47.502;18.940;2023-04-08T00:14:53;98203.78;;;2.69;99.49
65754;BME280;52488;47.502;18.940;2023-04-08T00:15:57;98194.41;;;2.70;99.54
65754;BME280;52488;47.502;18.940;2023-04-08T00:17:00;98197.53;;;2.74;99.53
65754;BME280;52488;47.502;18.940;2023-04-08T00:18:05;98208.97;;;2.80;99.33
65754;BME280;52488;47.502;18.940;2023-04-08T00:19:09;98199.16;;;2.77;99.04
65754;BME280;52488;47.502;18.940;2023-04-08T00:20:12;98204.41;;;2.75;98.88
65754;BME280;52488;47.502;18.940;2023-04-08T00:21:16;98202.75;;;2.72;98.94
65754;BME280;52488;47.502;18.940;2023-04-08T00:22:22;98209.41;;;2.71;99.15
65754;BME280;52488;47.502;18.940;2023-04-08T00:23:25;98208.69;;;2.71;99.35
65754;BME280;52488;47.502;18.940;2023-04-08T00:24:27;98207.97;;;2.70;99.54
65754;BME280;52488;47.502;18.940;2023-04-08T00:25:30;98202.53;;;2.70;99.75
65754;BME280;52488;47.502;18.940;2023-04-08T00:26:33;98204.19;;;2.73;99.77
65754;BME280;52488;47.502;18.940;2023-04-08T00:27:37;98202.22;;;2.74;99.72
65754;BME280;52488;47.502;18.940;2023-04-08T00:28:40;98200.03;;;2.72;99.67
65754;BME280;52488;47.502;18.940;2023-04-08T00:29:44;98203.47;;;2.73;99.68
65754;BME280;52488;47.502;18.940;2023-04-08T00:30:47;98200.44;;;2.76;99.67
65754;BME280;52488;47.502;18.940;2023-04-08T00:31:50;98201.87;;;2.77;99.48
65754;BME280;52488;47.502;18.940;2023-04-08T00:32:53;98196.97;;;2.76;99.33
65754;BME280;52488;47.502;18.940;2023-04-08T00:33:56;98199.91;;;2.78;99.31
65754;BME280;52488;47.502;18.940;2023-04-08T00:35:00;98198.53;;;2.84;99.28
65754;BME280;52488;47.502;18.940;2023-04-08T00:36:04;98203.13;;;2.89;99.11
65754;BME280;52488;47.502;18.940;2023-04-08T00:37:08;98199.88;;;2.91;98.92
65754;BME280;52488;47.502;18.940;2023-04-08T00:38:11;98201.50;;;2.94;98.76
65754;BME280;52488;47.502;18.940;2023-04-08T00:39:14;98206.22;;;2.94;98.65
65754;BME280;52488;47.502;18.940;2023-04-08T00:40:17;98211.31;;;2.97;98.50
65754;BME280;52488;47.502;18.940;2023-04-08T00:41:21;98208.59;;;2.97;98.18
65754;BME280;52488;47.502;18.940;2023-04-08T00:42:24;98209.41;;;3.05;97.85
65754;BME280;52488;47.502;18.940;2023-04-08T00:43:27;98215.16;;;3.02;97.29
65754;BME280;52488;47.502;18.940;2023-04-08T00:44:30;98208.06;;;2.99;96.96
65754;BME280;52488;47.502;18.940;2023-04-08T00:45:33;98205.28;;;2.91;97.05
65754;BME280;52488;47.502;18.940;2023-04-08T00:46:38;98205.72;;;2.82;97.46
65754;BME280;52488;47.502;18.940;2023-04-08T00:47:41;98200.41;;;2.89;97.45
65754;BME280;52488;47.502;18.940;2023-04-08T00:48:45;98202.81;;;2.80;97.31
65754;BME280;52488;47.502;18.940;2023-04-08T00:49:48;98208.19;;;2.72;97.59
65754;BME280;52488;47.502;18.940;2023-04-08T00:50:51;98201.87;;;2.77;97.69
65754;BME280;52488;47.502;18.940;2023-04-08T00:51:54;98207.41;;;2.72;97.64
65754;BME280;52488;47.502;18.940;2023-04-08T00:52:57;98201.50;;;2.73;97.80
65754;BME280;52488;47.502;18.940;2023-04-08T00:54:00;98203.44;;;2.86;97.41
65754;BME280;52488;47.502;18.940;2023-04-08T00:55:03;98197.94;;;2.78;97.25
65754;BME280;52488;47.502;18.940;2023-04-08T00:56:06;98206.91;;;2.73;97.43
65754;BME280;52488;47.502;18.940;2023-04-08T00:57:09;98205.25;;;2.70;97.70
65754;BME280;52488;47.502;18.940;2023-04-08T00:58:13;98208.19;;;2.72;97.76
65754;BME280;52488;47.502;18.940;2023-04-08T00:59:17;98209.94;;;2.70;97.70
65754;BME280;52488;47.502;18.940;2023-04-08T01:00:20;98200.53;;;2.71;97.80
65754;BME280;52488;47.502;18.940;2023-04-08T01:02:50;98207.75;;;2.68;97.99
65754;BME280;52488;47.502;18.940;2023-04-08T01:04:04;98198.56;;;2.71;97.67
65754;BME280;52488;47.502;18.940;2023-04-08T01:05:19;98206.09;;;2.65;97.43
65754;BME280;52488;47.502;18.940;2023-04-08T01:07:33;98207.34;;;2.64;97.57
65754;BME280;52488;47.502;18.940;2023-04-08T01:08:39;98202.47;;;2.62;97.81
65754;BME280;52488;47.502;18.940;2023-04-08T01:09:47;98206.09;;;2.65;97.78
65754;BME280;52488;47.502;18.940;2023-04-08T01:10:58;98203.97;;;2.71;97.52
65754;BME280;52488;47.502;18.940;2023-04-08T01:12:07;98202.53;;;2.70;97.45
65754;BME280;52488;47.502;18.940;2023-04-08T01:13:13;98208.81;;;2.65;97.38
65754;BME280;52488;47.502;18.940;2023-04-08T01:14:20;98202.47;;;2.62;97.60
65754;BME280;52488;47.502;18.940;2023-04-08T01:15:27;98197.56;;;2.61;97.80
65754;BME280;52488;47.502;18.940;2023-04-08T01:16:31;98200.78;;;2.59;97.83
65754;BME280;52488;47.502;18.940;2023-04-08T01:17:35;98200.28;;;2.61;97.94
65754;BME280;52488;47.502;18.940;2023-04-08T01:18:41;98197.16;;;2.57;97.90
65754;BME280;52488;47.502;18.940;2023-04-08T01:19:45;98202.56;;;2.57;97.95
65754;BME280;52488;47.502;18.940;2023-04-08T01:20:50;98204.34;;;2.54;98.05
65754;BME280;52488;47.502;18.940;2023-04-08T01:22:02;98208.50;;;2.55;98.20
65754;BME280;52488;47.502;18.940;2023-04-08T01:23:45;98203.00;;;2.61;98.08
65754;BME280;52488;47.502;18.940;2023-04-08T01:25:01;98207.06;;;2.54;97.93
65754;BME280;52488;47.502;18.940;2023-04-08T01:26:06;98212.97;;;2.66;97.85
65754;BME280;52488;47.502;18.940;2023-04-08T01:27:10;98215.06;;;2.60;97.48
65754;BME280;52488;47.502;18.940;2023-04-08T01:28:17;98217.16;;;2.54;97.69
65754;BME280;52488;47.502;18.940;2023-04-08T01:29:20;98208.50;;;2.55;97.72
65754;BME280;52488;47.502;18.940;2023-04-08T01:30:24;98209.53;;;2.65;97.20
65754;BME280;52488;47.502;18.940;2023-04-08T01:31:28;98212.88;;;2.58;97.07
65754;BME280;52488;47.502;18.940;2023-04-08T01:32:34;98208.59;;;2.63;97.12
65754;BME280;52488;47.502;18.940;2023-04-08T01:33:38;98202.03;;;2.58;97.05
65754;BME280;52488;47.502;18.940;2023-04-08T01:34:42;98208.50;;;2.55;97.20
65754;BME280;52488;47.502;18.940;2023-04-08T01:35:45;98200.91;;;2.54;97.38
65754;BME280;52488;47.502;18.940;2023-04-08T01:36:49;98203.41;;;2.52;97.61
65754;BME280;52488;47.502;18.940;2023-04-08T01:37:54;98202.34;;;2.55;97.65
65754;BME280;52488;47.502;18.940;2023-04-08T01:38:59;98211.75;;;2.54;97.76
65754;BME280;52488;47.502;18.940;2023-04-08T01:40:06;98211.03;;;2.53;97.91
65754;BME280;52488;47.502;18.940;2023-04-08T01:41:17;98209.75;;;2.54;97.93
65754;BME280;52488;47.502;18.940;2023-04-08T01:42:25;98202.16;;;2.53;97.99
65754;BME280;52488;47.502;18.940;2023-04-08T01:43:32;98206.84;;;2.52;98.10
65754;BME280;52488;47.502;18.940;2023-04-08T01:44:37;98203.41;;;2.52;98.29
65754;BME280;52488;47.502;18.940;2023-04-08T01:45:47;98207.38;;;2.51;98.44
65754;BME280;52488;47.502;18.940;2023-04-08T01:46:52;98200.47;;;2.50;98.52
65754;BME280;52488;47.502;18.940;2023-04-08T01:47:57;98212.34;;;2.60;98.22
65754;BME280;52488;47.502;18.940;2023-04-08T01:49:03;98203.31;;;2.57;98.09
65754;BME280;52488;47.502;18.940;2023-04-08T01:50:08;98205.91;;;2.63;98.14
65754;BME280;52488;47.502;18.940;2023-04-08T01:51:13;98203.38;;;2.65;97.62
65754;BME280;52488;47.502;18.940;2023-04-08T01:52:19;98203.31;;;2.57;97.59
65754;BME280;52488;47.502;18.940;2023-04-08T01:53:23;98203.38;;;2.65;97.51
65754;BME280;52488;47.502;18.940;2023-04-08T01:54:26;98202.78;;;2.59;97.33
65754;BME280;52488;47.502;18.940;2023-04-08T01:55:31;98197.03;;;2.62;97.32
65754;BME280;52488;47.502;18.940;2023-04-08T01:56:37;98199.31;;;2.58;97.22
65754;BME280;52488;47.502;18.940;2023-04-08T01:57:43;98193.72;;;2.56;97.43
65754;BME280;52488;47.502;18.940;2023-04-08T01:58:52;98203.63;;;2.54;97.59
65754;BME280;52488;47.502;18.940;2023-04-08T02:00:01;98197.78;;;2.50;97.90
65754;BME280;52488;47.502;18.940;2023-04-08T02:01:13;98198.19;;;2.54;98.02
65754;BME280;52488;47.502;18.940;2023-04-08T02:02:19;98203.41;;;2.52;97.96
65754;BME280;52488;47.502;18.940;2023-04-08T02:03:24;98204.25;;;2.47;98.04
65754;BME280;52488;47.502;18.940;2023-04-08T02:04:29;98198.53;;;2.50;98.02
65754;BME280;52488;47.502;18.940;2023-04-08T02:05:33;98202.13;;;2.66;97.71
65754;BME280;52488;47.502;18.940;2023-04-08T02:06:36;98204.03;;;2.58;97.21
65754;BME280;52488;47.502;18.940;2023-04-08T02:07:39;98205.72;;;2.48;97.44
65754;BME280;52488;47.502;18.940;2023-04-08T02:08:44;98201.63;;;2.68;97.44
65754;BME280;52488;47.502;18.940;2023-04-08T02:09:47;98199.41;;;2.66;96.80
65754;BME280;52488;47.502;18.940;2023-04-08T02:10:50;98205.69;;;2.61;96.66
65754;BME280;52488;47.502;18.940;2023-04-08T02:11:53;98209.56;;;2.52;97.11
65754;BME280;52488;47.502;18.940;2023-04-08T02:12:56;98204.25;;;2.47;97.68
65754;BME280;52488;47.502;18.940;2023-04-08T02:13:59;98206.97;;;2.47;97.95
65754;BME280;52488;47.502;18.940;2023-04-08T02:15:02;98204.06;;;2.45;98.29
65754;BME280;52488;47.502;18.940;2023-04-08T02:16:19;98199.88;;;2.44;98.75
65754;BME280;52488;47.502;18.940;2023-04-08T02:17:50;98205.72;;;2.48;98.81
65754;BME280;52488;47.502;18.940;2023-04-08T02:19:10;98199.88;;;2.44;98.93
65754;BME280;52488;47.502;18.940;2023-04-08T02:20:23;98208.00;;;2.44;99.20
65754;BME280;52488;47.502;18.940;2023-04-08T02:21:32;98204.06;;;2.45;99.39
65754;BME280;52488;47.502;18.940;2023-04-08T02:23:23;98203.00;;;2.48;99.46
65754;BME280;52488;47.502;18.940;2023-04-08T02:24:25;98203.00;;;2.48;99.65
65754;BME280;52488;47.502;18.940;2023-04-08T02:25:29;98201.75;;;2.49;99.83
65754;BME280;52488;47.502;18.940;2023-04-08T02:26:35;98197.03;;;2.49;99.93
65754;BME280;52488;47.502;18.940;2023-04-08T02:27:39;98196.19;;;2.54;99.91
65754;BME280;52488;47.502;18.940;2023-04-08T02:28:44;98198.91;;;2.54;99.78
65754;BME280;52488;47.502;18.940;2023-04-08T02:29:52;98202.56;;;2.57;99.75
65754;BME280;52488;47.502;18.940;2023-04-08T02:30:59;98202.34;;;2.55;99.70
65754;BME280;52488;47.502;18.940;2023-04-08T02:32:03;98200.88;;;2.67;99.54
65754;BME280;52488;47.502;18.940;2023-04-08T02:33:07;98202.22;;;2.74;98.93
65754;BME280;52488;47.502;18.940;2023-04-08T02:34:11;98198.38;;;2.69;98.53
65754;BME280;52488;47.502;18.940;2023-04-08T02:35:16;98199.69;;;2.76;98.61
65754;BME280;52488;47.502;18.940;2023-04-08T02:36:20;98202.87;;;2.67;98.41
65754;BME280;52488;47.502;18.940;2023-04-08T02:37:24;98204.22;;;2.60;98.81
65754;BME280;52488;47.502;18.940;2023-04-08T02:38:28;98204.03;;;2.58;99.17
65754;BME280;52488;47.502;18.940;2023-04-08T02:39:32;98201.31;;;2.58;99.40
65754;BME280;52488;47.502;18.940;2023-04-08T02:40:35;98206.50;;;2.69;99.23
65754;BME280;52488;47.502;18.940;2023-04-08T02:41:38;98199.94;;;2.64;99.09
65754;BME280;52488;47.502;18.940;2023-04-08T02:42:41;98201.00;;;2.61;99.22
65754;BME280;52488;47.502;18.940;2023-04-08T02:43:44;98202.87;;;2.67;99.43
65754;BME280;52488;47.502;18.940;2023-04-08T02:44:50;98193.06;;;2.63;99.35
65754;BME280;52488;47.502;18.940;2023-04-08T02:45:53;98205.69;;;2.61;99.41
65754;BME280;52488;47.502;18.940;2023-04-08T02:46:56;98205.38;;;2.64;99.55
65754;BME280;52488;47.502;18.940;2023-04-08T02:47:59;98200.66;;;2.65;99.42
65754;BME280;52488;47.502;18.940;2023-04-08T02:49:03;98202.13;;;2.66;99.37
65754;BME280;52488;47.502;18.940;2023-04-08T02:50:07;98198.28;;;2.61;99.46
65754;BME280;52488;47.502;18.940;2023-04-08T02:51:10;98201.63;;;2.68;99.35
65754;BME280;52488;47.502;18.940;2023-04-08T02:52:13;98203.19;;;2.63;99.38
65754;BME280;52488;47.502;18.940;2023-04-08T02:53:16;98195.66;;;2.69;99.28
65754;BME280;52488;47.502;18.940;2023-04-08T02:54:19;98190.53;;;2.65;99.28
65754;BME280;52488;47.502;18.940;2023-04-08T02:55:22;98195.59;;;2.61;99.42
65754;BME280;52488;47.502;18.940;2023-04-08T02:56:25;98201.31;;;2.58;99.65
65754;BME280;52488;47.502;18.940;2023-04-08T02:57:28;98203.91;;;2.63;99.72
65754;BME280;52488;47.502;18.940;2023-04-08T02:58:32;98190.53;;;2.65;99.53
65754;BME280;52488;47.502;18.940;2023-04-08T02:59:35;98195.88;;;2.58;99.52
65754;BME280;52488;47.502;18.940;2023-04-08T03:00:39;98196.81;;;2.60;99.67
65754;BME280;52488;47.502;18.940;2023-04-08T03:01:42;98197.63;;;2.69;99.50
65754;BME280;52488;47.502;18.940;2023-04-08T03:02:45;98197.09;;;2.70;99.33
65754;BME280;52488;47.502;18.940;2023-04-08T03:03:49;98201.38;;;2.79;98.96
65754;BME280;52488;47.502;18.940;2023-04-08T03:04:52;98205.84;;;2.76;98.62
65754;BME280;52488;47.502;18.940;2023-04-08T03:05:56;98198.78;;;2.73;98.64
65754;BME280;52488;47.502;18.940;2023-04-08T03:06:59;98200.66;;;2.65;98.75
65754;BME280;52488;47.502;18.940;2023-04-08T03:08:02;98194.84;;;2.61;98.95
65754;BME280;52488;47.502;18.940;2023-04-08T03:09:05;98201.63;;;2.54;99.22
65754;BME280;52488;47.502;18.940;2023-04-08T03:10:08;98199.44;;;2.53;99.58
65754;BME280;52488;47.502;18.940;2023-04-08T03:11:12;98194.75;;;2.53;99.68
65754;BME280;52488;47.502;18.940;2023-04-08T03:12:15;98203.94;;;2.50;99.90
65754;BME280;52488;47.502;18.940;2023-04-08T03:13:17;98199.03;;;2.49;100.00
65754;BME280;52488;47.502;18.940;2023-04-08T03:14:20;98205.19;;;2.49;100.00
65754;BME280;52488;47.502;18.940;2023-04-08T03:15:23;98201.97;;;2.51;100.00
65754;BME280;52488;47.502;18.940;2023-04-08T03:16:27;98203.06;;;2.55;100.00
65754;BME280;52488;47.502;18.940;2023-04-08T03:17:30;98202.78;;;2.59;100.00
65754;BME280;52488;47.502;18.940;2023-04-08T03:18:37;98209.16;;;2.61;100.00
65754;BME280;52488;47.502;18.940;2023-04-08T03:19:40;98209.09;;;2.75;99.71
65754;BME280;52488;47.502;18.940;2023-04-08T03:20:43;98215.69;;;2.66;99.33
65754;BME280;52488;47.502;18.940;2023-04-08T03:21:46;98208.69;;;2.71;99.07
65754;BME280;52488;47.502;18.940;2023-04-08T03:22:49;98209.75;;;2.68;98.93
65754;BME280;52488;47.502;18.940;2023-04-08T03:23:52;98211.44;;;2.57;99.24
65754;BME280;52488;47.502;18.940;2023-04-08T03:24:55;98216.56;;;2.61;99.43
65754;BME280;52488;47.502;18.940;2023-04-08T03:25:57;98213.84;;;2.61;99.49
65754;BME280;52488;47.502;18.940;2023-04-08T03:27:06;98210.28;;;2.53;99.61
65754;BME280;52488;47.502;18.940;2023-04-08T03:28:10;98209.37;;;2.50;99.94
65754;BME280;52488;47.502;18.940;2023-04-08T03:29:12;98216.13;;;2.57;100.00
65754;BME280;52488;47.502;18.940;2023-04-08T03:30:16;98211.44;;;2.57;99.85
65754;BME280;52488;47.502;18.940;2023-04-08T03:31:19;98216.56;;;2.61;99.76
65754;BME280;52488;47.502;18.940;2023-04-08T03:32:23;98210.19;;;2.58;99.59
65754;BME280;52488;47.502;18.940;2023-04-08T03:33:26;98205.69;;;2.61;99.65
65754;BME280;52488;47.502;18.940;2023-04-08T03:34:29;98213.31;;;2.62;99.20
65754;BME280;52488;47.502;18.940;2023-04-08T03:35:32;98209.16;;;2.61;99.17
65754;BME280;52488;47.502;18.940;2023-04-08T03:36:35;98209.44;;;2.58;99.12
65754;BME280;52488;47.502;18.940;2023-04-08T03:37:37;98209.25;;;2.56;99.44
65754;BME280;52488;47.502;18.940;2023-04-08T03:38:43;98212.78;;;2.64;99.06
65754;BME280;52488;47.502;18.940;2023-04-08T03:39:46;98216.75;;;2.63;98.83
65754;BME280;52488;47.502;18.940;2023-04-08T03:40:49;98208.63;;;2.50;99.00
65754;BME280;52488;47.502;18.940;2023-04-08T03:41:52;98221.12;;;2.53;99.13
65754;BME280;52488;47.502;18.940;2023-04-08T03:42:55;98213.22;;;2.42;99.51
65754;BME280;52488;47.502;18.940;2023-04-08T03:43:58;98220.75;;;2.35;99.98
65754;BME280;52488;47.502;18.940;2023-04-08T03:45:01;98215.22;;;2.41;100.00
65754;BME280;52488;47.502;18.940;2023-04-08T03:46:04;98220.22;;;2.37;100.00
65754;BME280;52488;47.502;18.940;2023-04-08T03:47:08;98218.97;;;2.51;100.00
65754;BME280;52488;47.502;18.940;2023-04-08T03:48:10;98216.75;;;2.50;100.00
65754;BME280;52488;47.502;18.940;2023-04-08T03:49:13;98213.22;;;2.42;100.00
65754;BME280;52488;47.502;18.940;2023-04-08T03:50:17;98223.88;;;2.40;100.00
65754;BME280;52488;47.502;18.940;2023-04-08T03:51:20;98219.28;;;2.34;100.00
65754;BME280;52488;47.502;18.940;2023-04-08T03:52:23;98217.19;;;2.41;100.00
65754;BME280;52488;47.502;18.940;2023-04-08T03:53:26;98218.78;;;2.36;100.00
65754;BME280;52488;47.502;18.940;2023-04-08T03:54:30;98225.22;;;2.33;100.00
65754;BME280;52488;47.502;18.940;2023-04-08T03:55:33;98225.22;;;2.33;100.00
65754;BME280;52488;47.502;18.940;2023-04-08T03:56:36;98222.41;;;2.38;100.00
65754;BME280;52488;47.502;18.940;2023-04-08T03:57:39;98224.28;;;2.44;100.00
65754;BME280;52488;47.502;18.940;2023-04-08T03:58:44;98230.53;;;2.38;100.00
65754;BME280;52488;47.502;18.940;2023-04-08T03:59:47;98228.66;;;2.47;100.00
65754;BME280;52488;47.502;18.940;2023-04-08T04:00:50;98233.97;;;2.52;100.00
65754;BME280;52488;47.502;18.940;2023-04-08T04:01:53;98233.84;;;2.58;100.00
65754;BME280;52488;47.502;18.940;2023-04-08T04:02:56;98229.91;;;2.46;100.00
65754;BME280;52488;47.502;18.940;2023-04-08T04:03:59;98234.72;;;2.40;100.00
65754;BME280;52488;47.502;18.940;2023-04-08T04:05:03;98230.22;;;2.42;100.00
65754;BME280;52488;47.502;18.940;2023-04-08T04:06:06;98232.91;;;2.55;100.00
65754;BME280;52488;47.502;18.940;2023-04-08T04:07:09;98236.56;;;2.58;100.00
65754;BME280;52488;47.502;18.940;2023-04-08T04:08:12;98239.81;;;2.56;100.00
65754;BME280;52488;47.502;18.940;2023-04-08T04:09:15;98238.44;;;2.63;100.00
65754;BME280;52488;47.502;18.940;2023-04-08T04:10:18;98237.38;;;2.66;100.00
65754;BME280;52488;47.502;18.940;2023-04-08T04:11:22;98233.13;;;2.57;100.00
65754;BME280;52488;47.502;18.940;2023-04-08T04:12:31;98234.59;;;2.58;100.00
65754;BME280;52488;47.502;18.940;2023-04-08T04:13:34;98233.78;;;2.50;100.00
65754;BME280;52488;47.502;18.940;2023-04-08T04:14:37;98233.34;;;2.46;100.00
65754;BME280;52488;47.502;18.940;2023-04-08T04:15:40;98236.38;;;2.43;100.00
65754;BME280;52488;47.502;18.940;2023-04-08T04:16:43;98239.31;;;2.45;100.00
65754;BME280;52488;47.502;18.940;2023-04-08T04:17:49;98238.56;;;2.44;100.00
65754;BME280;52488;47.502;18.940;2023-04-08T04:18:52;98239.50;;;2.47;100.00
65754;BME280;52488;47.502;18.940;2023-04-08T04:19:55;98240.75;;;2.59;100.00
65754;BME280;52488;47.502;18.940;2023-04-08T04:20:59;98237.31;;;2.58;100.00
65754;BME280;52488;47.502;18.940;2023-04-08T04:22:02;98242.94;;;2.47;100.00
65754;BME280;52488;47.502;18.940;2023-04-08T04:23:04;98240.53;;;2.44;100.00
65754;BME280;52488;47.502;18.940;2023-04-08T04:24:08;98245.25;;;2.43;100.00
65754;BME280;52488;47.502;18.940;2023-04-08T04:25:10;98241.59;;;2.41;100.00
65754;BME280;52488;47.502;18.940;2023-04-08T04:26:14;98238.88;;;2.54;100.00
65754;BME280;52488;47.502;18.940;2023-04-08T04:27:17;98244.50;;;2.56;100.00
65754;BME280;52488;47.502;18.940;2023-04-08T04:28:20;98253.25;;;2.49;100.00
65754;BME280;52488;47.502;18.940;2023-04-08T04:29:23;98243.88;;;2.50;100.00
65754;BME280;52488;47.502;18.940;2023-04-08T04:30:27;98243.06;;;2.42;100.00
65754;BME280;52488;47.502;18.940;2023-04-08T04:31:30;98241.59;;;2.41;100.00
65754;BME280;52488;47.502;18.940;2023-04-08T04:32:33;98245.78;;;2.42;100.00
65754;BME280;52488;47.502;18.940;2023-04-08T04:33:36;98247.66;;;2.47;100.00
65754;BME280;52488;47.502;18.940;2023-04-08T04:34:39;98249.09;;;2.48;100.00
65754;BME280;52488;47.502;18.940;2023-04-08T04:35:42;98240.25;;;2.47;100.00
65754;BME280;52488;47.502;18.940;2023-04-08T04:36:45;98245.78;;;2.42;100.00
65754;BME280;52488;47.502;18.940;2023-04-08T04:37:49;98246.38;;;2.48;100.00
65754;BME280;52488;47.502;18.940;2023-04-08T04:38:53;98244.94;;;2.47;100.00
65754;BME280;52488;47.502;18.940;2023-04-08T04:39:57;98240.97;;;2.48;100.00
65754;BME280;52488;47.502;18.940;2023-04-08T04:41:00;98244.22;;;2.46;100.00
65754;BME280;52488;47.502;18.940;2023-04-08T04:42:03;98246.59;;;2.36;100.00
65754;BME280;52488;47.502;18.940;2023-04-08T04:43:06;98245.97;;;2.44;100.00
65754;BME280;52488;47.502;18.940;2023-04-08T04:44:09;98252.53;;;2.48;100.00
65754;BME280;52488;47.502;18.940;2023-04-08T04:45:12;98243.88;;;2.50;100.00
65754;BME280;52488;47.502;18.940;2023-04-08T04:46:15;98244.22;;;2.46;100.00
65754;BME280;52488;47.502;18.940;2023-04-08T04:47:19;98250.44;;;2.54;100.00
65754;BME280;52488;47.502;18.940;2023-04-08T04:48:22;98245.12;;;2.49;100.00
65754;BME280;52488;47.502;18.940;2023-04-08T04:49:25;98251.09;;;2.47;100.00
65754;BME280;52488;47.502;18.940;2023-04-08T04:50:28;98248.03;;;2.64;100.00
65754;BME280;52488;47.502;18.940;2023-04-08T04:51:31;98253.16;;;2.54;100.00
65754;BME280;52488;47.502;18.940;2023-04-08T04:52:35;98246.81;;;2.52;100.00
65754;BME280;52488;47.502;18.940;2023-04-08T04:53:38;98258.50;;;2.47;100.00
65754;BME280;52488;47.502;18.940;2023-04-08T04:54:41;98250.56;;;2.49;100.00
65754;BME280;52488;47.502;18.940;2023-04-08T04:55:44;98251.00;;;2.40;100.00
65754;BME280;52488;47.502;18.940;2023-04-08T04:56:47;98251.72;;;2.40;100.00
65754;BME280;52488;47.502;18.940;2023-04-08T04:57:50;98255.69;;;2.39;100.00
65754;BME280;52488;47.502;18.940;2023-04-08T04:58:53;98257.44;;;2.36;100.00
65754;BME280;52488;47.502;18.940;2023-04-08T04:59:56;98259.25;;;2.34;100.00
65754;BME280;52488;47.502;18.940;2023-04-08T05:00:58;98259.25;;;2.34;100.00
65754;BME280;52488;47.502;18.940;2023-04-08T05:02:02;98257.88;;;2.41;100.00
65754;BME280;52488;47.502;18.940;2023-04-08T05:03:05;98261.13;;;2.39;100.00
65754;BME280;52488;47.502;18.940;2023-04-08T05:04:08;98261.13;;;2.39;100.00
65754;BME280;52488;47.502;18.940;2023-04-08T05:05:12;98254.94;;;2.38;100.00
65754;BME280;52488;47.502;18.940;2023-04-08T05:06:15;98257.88;;;2.41;100.00
65754;BME280;52488;47.502;18.940;2023-04-08T05:07:18;98252.88;;;2.45;100.00
65754;BME280;52488;47.502;18.940;2023-04-08T05:08:22;98262.13;;;2.49;100.00
65754;BME280;52488;47.502;18.940;2023-04-08T05:09:28;98266.22;;;2.43;100.00
65754;BME280;52488;47.502;18.940;2023-04-08T05:10:31;98257.75;;;2.46;100.00
65754;BME280;52488;47.502;18.940;2023-04-08T05:11:34;98255.25;;;2.48;100.00
65754;BME280;52488;47.502;18.940;2023-04-08T05:12:37;98252.53;;;2.48;100.00
65754;BME280;52488;47.502;18.940;2023-04-08T05:13:40;98252.53;;;2.48;100.00
65754;BME280;52488;47.502;18.940;2023-04-08T05:14:43;98249.28;;;2.50;100.00
65754;BME280;52488;47.502;18.940;2023-04-08T05:15:46;98254.22;;;2.51;100.00
65754;BME280;52488;47.502;18.940;2023-04-08T05:16:49;98258.06;;;2.56;100.00
65754;BME280;52488;47.502;18.940;2023-04-08T05:17:52;98262.25;;;2.57;100.00
65754;BME280;52488;47.502;18.940;2023-04-08T05:18:56;98261.41;;;2.62;100.00
65754;BME280;52488;47.502;18.940;2023-04-08T05:19:59;98264.84;;;2.62;100.00
65754;BME280;52488;47.502;18.940;2023-04-08T05:21:02;98259.72;;;2.59;100.00
65754;BME280;52488;47.502;18.940;2023-04-08T05:22:05;98266.22;;;2.56;100.00
65754;BME280;52488;47.502;18.940;2023-04-08T05:23:08;98264.31;;;2.64;100.00
65754;BME280;52488;47.502;18.940;2023-04-08T05:24:11;98260.75;;;2.69;100.00
65754;BME280;52488;47.502;18.940;2023-04-08T05:25:14;98265.75;;;2.65;100.00
65754;BME280;52488;47.502;18.940;2023-04-08T05:26:20;98266.41;;;2.58;100.00
65754;BME280;52488;47.502;18.940;2023-04-08T05:27:26;98269.13;;;2.58;100.00
65754;BME280;52488;47.502;18.940;2023-04-08T05:28:29;98272.56;;;2.58;100.00
65754;BME280;52488;47.502;18.940;2023-04-08T05:29:32;98267.44;;;2.55;100.00
65754;BME280;52488;47.502;18.940;2023-04-08T05:30:35;98273.28;;;2.59;100.00
65754;BME280;52488;47.502;18.940;2023-04-08T05:31:38;98284.66;;;2.57;100.00
65754;BME280;52488;47.502;18.940;2023-04-08T05:32:41;98278.81;;;2.53;100.00
65754;BME280;52488;47.502;18.940;2023-04-08T05:33:44;98283.81;;;2.62;100.00
65754;BME280;52488;47.502;18.940;2023-04-08T05:34:46;98284.31;;;2.74;100.00
65754;BME280;52488;47.502;18.940;2023-04-08T05:35:49;98278.06;;;2.66;100.00
65754;BME280;52488;47.502;18.940;2023-04-08T05:36:52;98278.72;;;2.59;100.00
65754;BME280;52488;47.502;18.940;2023-04-08T05:37:55;98287.38;;;2.57;100.00
65754;BME280;52488;47.502;18.940;2023-04-08T05:38:58;98282.38;;;2.61;100.00
65754;BME280;52488;47.502;18.940;2023-04-08T05:40:04;98291.66;;;2.53;100.00
65754;BME280;52488;47.502;18.940;2023-04-08T05:41:09;98282.97;;;2.54;100.00
65754;BME280;52488;47.502;18.940;2023-04-08T05:42:12;98284.56;;;2.63;100.00